createdAt,value
2018-12-08T00:01:43.188Z,99987.56
2018-12-08T00:06:54.719Z,99988.42
2018-12-08T00:12:05.867Z,99989.99
2018-12-08T00:17:16.841Z,99990.73
2018-12-08T00:22:28.065Z,99995.53
2018-12-08T00:27:39.372Z,99997.02
2018-12-08T00:33:24.181Z,100004.66
2018-12-08T00:38:37.401Z,99998.53
2018-12-08T00:43:48.478Z,99998.90
2018-12-08T00:48:56.221Z,100007.64
2018-12-08T00:54:09.483Z,100009.67
2018-12-08T00:59:20.449Z,100007.58
2018-12-08T01:04:31.654Z,100033.24
2018-12-08T01:09:45.426Z,100017.52
2018-12-08T01:14:58.556Z,100027.86
2018-12-08T01:20:09.764Z,100003.53
2018-12-08T01:25:21.173Z,100017.73
2018-12-08T01:30:33.801Z,100016.09
2018-12-08T01:35:44.998Z,100025.45
2018-12-08T01:40:56.759Z,100029.28
2018-12-08T01:46:10.767Z,100040.58
2018-12-08T01:51:22.895Z,100035.80
2018-12-08T01:56:34.072Z,100026.63
2018-12-08T02:01:46.335Z,100025.34
2018-12-08T02:06:57.509Z,100016.13
2018-12-08T02:12:09.398Z,100022.32
2018-12-08T02:17:20.465Z,100015.39
2018-12-08T02:22:32.678Z,100001.55
2018-12-08T02:27:47.207Z,100006.28
2018-12-08T02:32:59.208Z,99992.72
2018-12-08T02:38:10.369Z,99990.95
2018-12-08T02:43:24.590Z,99996.31
2018-12-08T02:48:35.634Z,99988.39
2018-12-08T02:53:47.684Z,99983.11
2018-12-08T02:58:55.235Z,99985.90
2018-12-08T03:04:09.178Z,99982.86
2018-12-08T03:09:21.168Z,99981.27
2018-12-08T03:14:33.331Z,99970.55
2018-12-08T03:19:45.595Z,99953.70
2018-12-08T03:24:57.595Z,99941.63
2018-12-08T03:30:11.936Z,99931.41
2018-12-08T03:35:22.733Z,99927.34
2018-12-08T03:40:36.694Z,99930.22
2018-12-08T03:45:48.729Z,99935.14
2018-12-08T03:51:02.731Z,99929.38
2018-12-08T03:56:14.715Z,99937.69
2018-12-08T04:01:26.808Z,99921.09
2018-12-08T04:06:34.777Z,99924.34
2018-12-08T04:11:50.309Z,99919.03
2018-12-08T04:17:01.235Z,99896.00
2018-12-08T04:22:13.431Z,99918.41
2018-12-08T04:27:21.070Z,99925.23
2018-12-08T04:32:35.595Z,99915.74
2018-12-08T04:37:47.257Z,99897.70
2018-12-08T04:40:16.744Z,99897.52
2018-12-08T04:45:27.852Z,99901.04
2018-12-08T04:50:37.468Z,99897.23
2018-12-08T04:55:49.648Z,99906.27
2018-12-08T05:00:56.978Z,99901.40
2018-12-08T05:06:08.057Z,99904.20
2018-12-08T05:11:18.985Z,99896.69
2018-12-08T05:16:30.219Z,99888.91
2018-12-08T05:21:41.310Z,99874.62
2018-12-08T05:26:52.264Z,99879.80
2018-12-08T05:32:03.317Z,99884.45
2018-12-08T05:37:14.307Z,99864.06
2018-12-08T05:42:27.375Z,99879.30
2018-12-08T05:47:38.426Z,99868.77
2018-12-08T05:52:50.768Z,99863.89
2018-12-08T05:58:01.826Z,99885.78
2018-12-08T06:03:14.790Z,99886.64
2018-12-08T06:08:26.099Z,99881.37
2018-12-08T06:13:36.960Z,99884.73
2018-12-08T06:18:48.289Z,99894.73
2018-12-08T06:23:59.398Z,99856.37
2018-12-08T06:29:10.700Z,99862.48
2018-12-08T06:34:21.630Z,99852.62
2018-12-08T06:39:33.729Z,99851.58
2018-12-08T06:44:46.214Z,99857.98
2018-12-08T06:49:58.328Z,99871.70
2018-12-08T06:55:12.429Z,99850.28
2018-12-08T07:00:24.631Z,99849.42
2018-12-08T07:05:35.617Z,99848.92
2018-12-08T07:10:47.977Z,99836.48
2018-12-08T07:16:01.064Z,99842.13
2018-12-08T07:18:30.485Z,99832.95
2018-12-08T07:23:42.556Z,99834.64
2018-12-08T07:28:53.566Z,99835.49
2018-12-08T07:34:04.575Z,99844.55
2018-12-08T07:39:15.598Z,99811.02
2018-12-08T07:44:29.028Z,99837.37
2018-12-08T07:49:40.085Z,99836.30
2018-12-08T07:54:51.501Z,99841.41
2018-12-08T08:00:04.616Z,99823.94
2018-12-08T08:05:15.836Z,99834.94
2018-12-08T08:10:27.298Z,99821.17
2018-12-08T08:15:38.089Z,99807.59
2018-12-08T08:20:49.059Z,99811.51
2018-12-08T08:26:03.140Z,99797.92
2018-12-08T08:31:14.352Z,99800.33
2018-12-08T08:36:25.345Z,99794.50
2018-12-08T08:41:36.428Z,99785.08
2018-12-08T08:46:47.444Z,99788.78
2018-12-08T08:52:00.025Z,99797.85
2018-12-08T08:57:11.136Z,99787.37
2018-12-08T09:02:24.872Z,99792.45
2018-12-08T09:07:41.047Z,99788.63
2018-12-08T09:12:54.250Z,99780.94
2018-12-08T09:18:05.360Z,99782.39
2018-12-08T09:23:18.241Z,99765.23
2018-12-08T09:28:29.300Z,99790.52
2018-12-08T09:33:40.439Z,99762.86
2018-12-08T09:38:51.799Z,99784.70
2018-12-08T09:44:02.861Z,99783.53
2018-12-08T09:49:15.835Z,99789.88
2018-12-08T09:54:27.023Z,99764.34
2018-12-08T09:59:37.905Z,99769.55
2018-12-08T10:04:49.486Z,99763.52
2018-12-08T10:10:02.968Z,99760.59
2018-12-08T10:15:14.471Z,99768.53
2018-12-08T10:20:25.581Z,99767.80
2018-12-08T10:25:33.109Z,99772.14
2018-12-08T10:30:45.216Z,99782.00
2018-12-08T10:35:53.125Z,99774.40
2018-12-08T10:41:04.492Z,99779.20
2018-12-08T10:46:15.540Z,99781.30
2018-12-08T10:51:27.450Z,99777.34
2018-12-08T10:56:39.158Z,99776.67
2018-12-08T11:02:01.121Z,99778.51
2018-12-08T11:07:14.444Z,99764.30
2018-12-08T11:12:26.384Z,99784.44
2018-12-08T11:17:37.579Z,99785.72
2018-12-08T11:22:50.388Z,99785.58
2018-12-08T11:28:01.370Z,99777.13
2018-12-08T11:33:10.568Z,99787.63
2018-12-08T11:38:21.837Z,99788.64
2018-12-08T11:43:34.026Z,99796.80
2018-12-08T11:49:01.031Z,99792.03
2018-12-08T11:54:18.762Z,99800.44
2018-12-08T11:59:33.989Z,99788.52
2018-12-08T12:05:09.466Z,99788.64
2018-12-08T12:10:35.105Z,99789.61
2018-12-08T12:16:01.175Z,99782.83
2018-12-08T12:18:37.525Z,99783.23
2018-12-08T12:23:56.889Z,99791.73
2018-12-08T12:29:08.972Z,99787.06
2018-12-08T12:34:34.193Z,99781.02
2018-12-08T12:39:48.736Z,99769.07
2018-12-08T12:45:14.484Z,99772.15
2018-12-08T12:50:34.133Z,99763.61
2018-12-08T12:55:49.990Z,99775.97
2018-12-08T13:01:03.978Z,99772.77
2018-12-08T13:06:20.452Z,99778.30
2018-12-08T13:11:34.697Z,99781.30
2018-12-08T13:16:46.427Z,99789.62
2018-12-08T13:21:57.623Z,99782.83
2018-12-08T13:27:11.661Z,99787.61
2018-12-08T13:32:25.141Z,99776.62
2018-12-08T13:37:36.691Z,99780.37
2018-12-08T13:42:50.807Z,99766.88
2018-12-08T13:48:03.372Z,99771.95
2018-12-08T13:53:16.032Z,99764.69
2018-12-08T13:58:27.592Z,99766.43
2018-12-08T14:03:39.043Z,99750.73
2018-12-08T14:08:50.644Z,99750.16
2018-12-08T14:14:02.110Z,99745.11
2018-12-08T14:19:15.168Z,99754.01
2018-12-08T14:24:26.207Z,99740.76
2018-12-08T14:29:41.868Z,99743.57
2018-12-08T14:34:56.902Z,99747.58
2018-12-08T14:40:10.156Z,99752.47
2018-12-08T14:45:22.437Z,99748.95
2018-12-08T14:50:34.757Z,99749.02
2018-12-08T14:55:51.168Z,99753.70
2018-12-08T15:01:06.709Z,99744.42
2018-12-08T15:06:17.735Z,99737.52
2018-12-08T15:11:29.041Z,99733.50
2018-12-08T15:16:40.189Z,99725.20
2018-12-08T15:21:48.193Z,99739.53
2018-12-08T15:26:55.564Z,99733.70
2018-12-08T15:32:07.700Z,99723.05
2018-12-08T15:37:15.461Z,99721.23
2018-12-08T15:42:45.514Z,99710.12
2018-12-08T15:47:58.991Z,99706.09
2018-12-08T15:53:14.394Z,99697.66
2018-12-08T15:58:25.754Z,99695.30
2018-12-08T16:03:38.351Z,99680.76
2018-12-08T16:08:49.931Z,99681.81
2018-12-08T16:14:05.011Z,99647.83
2018-12-08T16:19:16.147Z,99657.90
2018-12-08T16:24:27.608Z,99643.36
2018-12-08T16:29:39.669Z,99643.60
2018-12-08T16:34:51.943Z,99628.87
2018-12-08T16:40:07.501Z,99628.46
2018-12-08T16:45:15.822Z,99612.83
2018-12-08T16:50:27.977Z,99607.91
2018-12-08T16:55:39.325Z,99600.56
2018-12-08T17:00:51.388Z,99597.72
2018-12-08T17:06:02.619Z,99579.82
2018-12-08T17:11:15.133Z,99576.42
2018-12-08T17:16:26.329Z,99570.90
2018-12-08T17:21:38.244Z,99558.23
2018-12-08T17:26:49.548Z,99537.92
2018-12-08T17:32:01.674Z,99529.89
2018-12-08T17:37:12.792Z,99499.59
2018-12-08T17:42:24.852Z,99489.55
2018-12-08T17:47:36.153Z,99486.42
2018-12-08T17:52:49.315Z,99466.72
2018-12-08T17:58:00.410Z,99457.43
2018-12-08T18:03:14.537Z,99433.19
2018-12-08T18:08:25.648Z,99415.67
2018-12-08T18:13:34.019Z,99410.20
2018-12-08T18:18:45.307Z,99388.14
2018-12-08T18:23:57.206Z,99371.43
2018-12-08T18:29:08.625Z,99367.62
2018-12-08T18:31:37.954Z,99368.70
2018-12-08T18:36:49.015Z,99363.36
2018-12-08T18:42:02.079Z,99329.77
2018-12-08T18:47:15.305Z,99301.95
2018-12-08T18:52:26.384Z,99296.67
2018-12-08T18:57:37.949Z,99290.95
2018-12-08T19:02:51.578Z,99264.32
2018-12-08T19:08:02.715Z,99232.95
2018-12-08T19:10:32.179Z,99226.15
2018-12-08T19:15:43.302Z,99214.42
2018-12-08T19:20:55.733Z,99191.24
2018-12-08T19:26:06.896Z,99166.92
2018-12-08T19:31:19.045Z,99164.42
2018-12-08T19:36:26.604Z,99133.12
2018-12-08T19:41:38.046Z,99112.89
2018-12-08T19:46:49.777Z,99103.36
2018-12-08T19:52:01.166Z,99089.94
2018-12-08T19:57:12.538Z,99080.25
2018-12-08T20:02:23.984Z,99062.53
2018-12-08T20:07:35.169Z,99057.73
2018-12-08T20:12:46.554Z,99047.05
2018-12-08T20:17:59.773Z,99023.50
2018-12-08T20:23:11.801Z,98995.50
2018-12-08T20:28:24.255Z,98969.91
2018-12-08T20:30:54.181Z,98952.58
2018-12-08T20:36:05.382Z,98944.94
2018-12-08T20:41:16.533Z,98932.41
2018-12-08T20:46:29.934Z,98917.13
2018-12-08T20:51:40.914Z,98917.53
2018-12-08T20:56:52.191Z,98899.29
2018-12-08T21:02:03.611Z,98909.57
2018-12-08T21:07:14.580Z,98898.96
2018-12-08T21:12:25.820Z,98908.70
2018-12-08T21:17:37.101Z,98910.98
2018-12-08T21:22:50.740Z,98897.63
2018-12-08T21:28:03.910Z,98897.24
2018-12-08T21:33:15.944Z,98894.03
2018-12-08T21:38:27.491Z,98898.05
2018-12-08T21:43:40.416Z,98886.73
2018-12-08T21:48:51.551Z,98910.16
2018-12-08T21:54:03.876Z,98885.66
2018-12-08T21:59:11.392Z,98867.84
2018-12-08T22:04:22.399Z,98875.72
2018-12-08T22:09:33.428Z,98876.05
2018-12-08T22:14:49.753Z,98858.05
2018-12-08T22:20:00.752Z,98877.26
2018-12-08T22:25:11.694Z,98871.84
2018-12-08T22:30:22.709Z,98861.95
2018-12-08T22:35:33.984Z,98868.06
2018-12-08T22:40:45.081Z,98861.86
2018-12-08T22:45:57.199Z,98859.25
2018-12-08T22:51:08.197Z,98861.30
2018-12-08T22:56:21.282Z,98862.77
2018-12-08T23:01:33.609Z,98846.18
2018-12-08T23:07:00.082Z,98857.59
2018-12-08T23:12:12.536Z,98845.34
2018-12-08T23:17:23.957Z,98843.95
2018-12-08T23:19:53.400Z,98839.11
2018-12-08T23:22:22.983Z,98842.72
2018-12-08T23:27:35.912Z,98832.39
2018-12-08T23:32:50.151Z,98823.48
2018-12-08T23:38:01.914Z,98822.72
2018-12-08T23:43:14.265Z,98836.53
2018-12-08T23:48:26.195Z,98813.61
2018-12-08T23:53:39.553Z,98828.81
2018-12-08T23:58:52.223Z,98821.20
